Aeroporto :
LOGIN :

Iscrizione | Disclaimer

   EN    FR    IT 

 










Sommario :    VFR   VFR Marginale   IFR   IFR Intensivo   IFR Molto Intensivo
Visibilità : 
Base nubi : 
>= 8 km
>= 3000ft
5 / 8 km
1000 / 3000 ft
1500m / 5 km
500 / 1000 ft
800 / 1500m
200 / 500 ft
< 800m
< 200 ft
Simboli :   Temporali  Nebbia  Neve Forte  Precipitazioni Forti  Vento > 20 kt
SIGMETs :   Varie  Temporali  Ghiacco  Turbolenza  Onda orograficha  Ceneri Vulcaniche






- Altitudine del aeroporto : 1202 ft
- Codice IATA : IGS


ETSI - Ingolstadt

ULTIMO METAR :
  • 210520Z VRB02KT 9000 VCFG MIFG FEW090 SCT300 07/06 Q1016 BLU+BLU+ TEMPO RED

METARs OBSOLETI :
  • 210420Z VRB02KT 9999 VCFG MIFG BKN290 08/07 Q1014 BLU+BLU+ TEMPO RED
  • 210320Z 23001KT 9999 BKN300 09/08 Q1014 BLU+
  • 210220Z AUTO 03002KT 7000 // ////// 10/09 Q1013 ///

TAF TAF ETSI
Valido dal 21 a 05 ore il 21 a 14 ore UTC


210421Z 2105/2114 25005KT 9999 NSW BKN090 BKN280
TEMPO 2105/2107 28003KT 0500 FG VV000 BKN280



MetMap, La meteo Aeronautica in un colpo d'occhio ! - Copyright ORBIFLY Dicembre 2007 - Disclaimer

ORBIFLY MET'MAP TEAM :

Programmazione e sviluppo : Alexandra Zaïnal
Concezione e sviluppo : Baudouin d'Aumeries
Co-Programmazione e sviluppo : Marc-Olivier Méhu
Supporto tecnico e logistico : Manuel Goepfert
Aiuto per la traduzione : Arnaldo La Scala

Contatto : metmap@orbifly.com




FONTI E CREDITI :

   NOAA